createdAt,value
2017-12-13T00:00:57.590Z,51.46
2017-12-13T00:01:36.574Z,51.36
2017-12-13T00:02:57.569Z,51.36
2017-12-13T00:03:36.552Z,50.98
2017-12-13T00:04:36.548Z,51.26
2017-12-13T00:05:57.546Z,51.26
2017-12-13T00:06:36.540Z,51.17
2017-12-13T00:07:57.532Z,51.17
2017-12-13T00:08:36.514Z,51.36
2017-12-13T00:09:36.512Z,51.07
2017-12-13T00:10:57.511Z,51.07
2017-12-13T00:11:36.500Z,51.07
2017-12-13T00:12:57.494Z,51.36
2017-12-13T00:13:36.475Z,51.26
2017-12-13T00:14:36.481Z,51.07
2017-12-13T00:15:57.474Z,51.07
2017-12-13T00:16:36.458Z,51.07
2017-12-13T00:17:57.460Z,50.88
2017-12-13T00:18:36.438Z,51.56
2017-12-13T00:19:36.435Z,51.56
2017-12-13T00:20:57.431Z,51.65
2017-12-13T00:21:36.420Z,51.36
2017-12-13T00:22:57.419Z,51.36
2017-12-13T00:23:36.408Z,51.56
2017-12-13T00:24:36.397Z,51.75
2017-12-13T00:25:57.391Z,51.75
2017-12-13T00:26:36.385Z,51.84
2017-12-13T00:27:57.385Z,51.56
2017-12-13T00:28:36.395Z,51.65
2017-12-13T00:29:36.358Z,51.75
2017-12-13T00:30:57.349Z,51.75
2017-12-13T00:31:36.339Z,51.56
2017-12-13T00:32:57.339Z,51.56
2017-12-13T00:33:36.332Z,51.56
2017-12-13T00:34:36.346Z,51.65
2017-12-13T00:35:57.323Z,51.65
2017-12-13T00:36:36.307Z,51.65
2017-12-13T00:37:57.304Z,51.65
2017-12-13T00:38:36.286Z,51.65
2017-12-13T00:39:36.282Z,51.84
2017-12-13T00:40:57.283Z,51.84
2017-12-13T00:41:36.268Z,51.84
2017-12-13T00:42:57.265Z,51.65
2017-12-13T00:43:36.257Z,51.36
2017-12-13T00:44:36.242Z,51.65
2017-12-13T00:45:57.252Z,51.84
2017-12-13T00:46:36.223Z,51.65
2017-12-13T00:47:57.221Z,51.56
2017-12-13T00:48:36.212Z,51.65
2017-12-13T00:49:36.197Z,51.56
2017-12-13T00:50:57.202Z,51.65
2017-12-13T00:51:36.175Z,51.56
2017-12-13T00:52:57.187Z,51.65
2017-12-13T00:53:36.181Z,51.84
2017-12-13T00:54:36.167Z,51.46
2017-12-13T00:55:57.167Z,51.65
2017-12-13T00:56:36.147Z,51.56
2017-12-13T00:57:57.152Z,51.56
2017-12-13T00:58:36.137Z,51.75
2017-12-13T00:59:36.132Z,51.56
2017-12-13T01:00:57.130Z,51.56
2017-12-13T01:01:36.107Z,51.65
2017-12-13T01:02:57.108Z,51.56
2017-12-13T01:03:36.103Z,51.65
2017-12-13T01:04:36.091Z,51.56
2017-12-13T01:05:57.091Z,51.56
2017-12-13T01:06:36.065Z,51.65
2017-12-13T01:07:57.072Z,51.65
2017-12-13T01:08:36.062Z,51.65
2017-12-13T01:09:36.040Z,51.65
2017-12-13T01:10:57.050Z,51.56
2017-12-13T01:11:36.039Z,51.65
2017-12-13T01:12:57.032Z,51.65
2017-12-13T01:13:36.021Z,51.65
2017-12-13T01:14:36.012Z,51.65
2017-12-13T01:15:56.992Z,51.56
2017-12-13T01:16:36.000Z,51.65
2017-12-13T01:17:56.993Z,51.75
2017-12-13T01:18:35.978Z,51.56
2017-12-13T01:19:35.976Z,51.56
2017-12-13T01:20:56.971Z,51.56
2017-12-13T01:21:35.956Z,51.65
2017-12-13T01:22:56.951Z,51.56
2017-12-13T01:23:35.942Z,51.56
2017-12-13T01:24:35.932Z,51.56
2017-12-13T01:25:56.934Z,51.46
2017-12-13T01:26:35.930Z,51.46
2017-12-13T01:27:56.925Z,51.56
2017-12-13T01:28:35.900Z,51.46
2017-12-13T01:29:35.900Z,51.56
2017-12-13T01:30:56.899Z,51.56
2017-12-13T01:31:35.883Z,51.56
2017-12-13T01:32:56.882Z,51.56
2017-12-13T01:33:35.868Z,51.56
2017-12-13T01:34:35.862Z,51.56
2017-12-13T01:35:56.853Z,51.65
2017-12-13T01:36:35.841Z,51.56
2017-12-13T01:37:56.834Z,51.56
2017-12-13T01:38:35.823Z,51.65
2017-12-13T01:39:35.818Z,51.75
2017-12-13T01:40:56.849Z,51.65
2017-12-13T01:41:35.815Z,51.56
2017-12-13T01:42:56.807Z,51.56
2017-12-13T01:43:35.785Z,51.65
2017-12-13T01:44:35.780Z,51.56
2017-12-13T01:45:56.779Z,51.75
2017-12-13T01:46:35.764Z,51.56
2017-12-13T01:47:56.759Z,51.65
2017-12-13T01:48:35.774Z,51.56
2017-12-13T01:49:35.738Z,51.65
2017-12-13T01:50:56.740Z,51.56
2017-12-13T01:51:35.727Z,51.65
2017-12-13T01:52:56.726Z,51.56
2017-12-13T01:53:35.715Z,51.56
2017-12-13T01:54:35.704Z,51.46
2017-12-13T01:55:56.702Z,51.46
2017-12-13T01:56:35.721Z,51.26
2017-12-13T01:57:56.718Z,51.46
2017-12-13T01:58:35.709Z,51.84
2017-12-13T01:59:35.696Z,51.36
2017-12-13T02:00:56.670Z,51.84
2017-12-13T02:01:35.678Z,51.75
2017-12-13T02:02:56.647Z,51.84
2017-12-13T02:03:35.665Z,51.65
2017-12-13T02:04:35.620Z,52.13
2017-12-13T02:05:56.628Z,52.23
2017-12-13T02:06:35.612Z,52.33
2017-12-13T02:07:56.616Z,52.04
2017-12-13T02:08:35.614Z,52.04
2017-12-13T02:09:35.586Z,52.04
2017-12-13T02:10:56.590Z,52.04
2017-12-13T02:11:35.575Z,51.94
2017-12-13T02:12:56.574Z,52.04
2017-12-13T02:13:35.552Z,52.04
2017-12-13T02:14:35.548Z,52.13
2017-12-13T02:15:56.552Z,52.04
2017-12-13T02:16:35.539Z,52.04
2017-12-13T02:17:56.538Z,52.23
2017-12-13T02:18:35.511Z,52.23
2017-12-13T02:19:35.508Z,52.13
2017-12-13T02:20:56.502Z,52.33
2017-12-13T02:23:07.002Z,52.52
2017-12-13T02:24:06.979Z,52.23
2017-12-13T02:26:10.404Z,52.33
2017-12-13T02:26:59.850Z,52.13
2017-12-13T02:28:52.726Z,52.13
2017-12-13T02:29:52.704Z,52.13
2017-12-13T02:31:45.586Z,52.04
2017-12-13T02:32:45.565Z,52.13
2017-12-13T02:34:38.441Z,52.33
2017-12-13T02:35:38.437Z,52.40
2017-12-13T02:37:31.313Z,52.61
2017-12-13T02:38:31.291Z,52.23
2017-12-13T02:40:24.163Z,52.04
2017-12-13T02:41:24.153Z,52.33
2017-12-13T02:43:17.031Z,52.42
2017-12-13T02:44:17.020Z,52.42
2017-12-13T02:46:09.887Z,52.42
2017-12-13T02:47:09.875Z,52.42
2017-12-13T02:49:02.757Z,52.81
2017-12-13T02:50:02.732Z,52.52
2017-12-13T02:51:55.622Z,52.61
2017-12-13T02:52:55.601Z,52.61
2017-12-13T02:54:48.483Z,52.61
2017-12-13T02:55:48.464Z,52.61
2017-12-13T02:57:42.343Z,52.04
2017-12-13T02:58:42.318Z,52.23
2017-12-13T03:00:35.190Z,52.33
2017-12-13T03:01:35.178Z,52.13
2017-12-13T03:03:28.059Z,52.42
2017-12-13T03:04:28.036Z,52.52
2017-12-13T03:06:20.914Z,52.42
2017-12-13T03:07:20.903Z,52.42
2017-12-13T03:09:13.783Z,52.42
2017-12-13T03:10:13.764Z,52.42
2017-12-13T03:12:06.660Z,52.52
2017-12-13T03:13:06.626Z,52.04
2017-12-13T03:14:59.515Z,52.04
2017-12-13T03:15:59.494Z,51.94
2017-12-13T03:17:53.366Z,52.13
2017-12-13T03:18:53.344Z,52.23
2017-12-13T03:20:46.217Z,52.04
2017-12-13T03:21:46.205Z,52.04
2017-12-13T03:23:39.091Z,52.13
2017-12-13T03:24:39.069Z,52.23
2017-12-13T03:26:31.945Z,52.04
2017-12-13T03:27:31.935Z,52.23
2017-12-13T03:29:24.818Z,52.13
2017-12-13T03:30:24.799Z,52.42
2017-12-13T03:32:17.667Z,52.33
2017-12-13T03:33:17.655Z,52.23
2017-12-13T03:35:10.539Z,52.33
2017-12-13T03:36:10.517Z,52.23
2017-12-13T03:38:03.401Z,52.23
2017-12-13T03:39:03.379Z,52.42
2017-12-13T03:40:56.253Z,52.33
2017-12-13T03:41:56.239Z,52.23
2017-12-13T03:42:56.232Z,52.33
2017-12-13T03:43:56.226Z,52.13
2017-12-13T03:44:56.217Z,52.33
2017-12-13T03:45:56.227Z,52.13
2017-12-13T03:46:56.220Z,52.33
2017-12-13T03:47:56.196Z,52.23
2017-12-13T03:48:56.189Z,52.33
2017-12-13T03:49:56.179Z,52.33
2017-12-13T03:50:56.172Z,52.33
2017-12-13T03:51:56.168Z,52.33
2017-12-13T03:52:56.155Z,52.33
2017-12-13T03:53:56.149Z,52.42
2017-12-13T03:54:56.141Z,52.33
2017-12-13T03:55:56.132Z,52.33
2017-12-13T03:56:56.125Z,52.42
2017-12-13T03:57:56.123Z,52.33
2017-12-13T03:58:56.109Z,52.33
2017-12-13T03:59:56.100Z,52.33
2017-12-13T04:00:56.094Z,52.13
2017-12-13T04:01:56.086Z,52.33
2017-12-13T04:02:56.078Z,51.94
2017-12-13T04:03:56.070Z,52.13
2017-12-13T04:04:56.063Z,52.13
2017-12-13T04:05:56.055Z,52.04
2017-12-13T04:06:56.045Z,52.04
2017-12-13T04:07:56.039Z,52.04
2017-12-13T04:08:56.031Z,52.04
2017-12-13T04:09:56.025Z,51.94
2017-12-13T04:10:56.016Z,51.75
2017-12-13T04:11:56.009Z,51.84
2017-12-13T04:12:56.003Z,51.58
2017-12-13T04:13:55.993Z,51.56
2017-12-13T04:14:55.986Z,51.36
2017-12-13T04:15:55.976Z,51.65
2017-12-13T04:16:55.974Z,51.58
2017-12-13T04:17:55.962Z,51.68
2017-12-13T04:18:55.955Z,51.68
2017-12-13T04:19:55.949Z,51.58
2017-12-13T04:20:55.940Z,51.77
2017-12-13T04:21:55.955Z,51.68
2017-12-13T04:22:55.925Z,51.68
2017-12-13T04:23:55.916Z,51.68
2017-12-13T04:24:55.908Z,51.68
2017-12-13T04:25:55.903Z,51.68
2017-12-13T04:26:55.893Z,51.68
2017-12-13T04:27:55.889Z,51.58
2017-12-13T04:28:55.880Z,51.58
2017-12-13T04:29:55.871Z,51.58
2017-12-13T04:30:55.863Z,51.68
2017-12-13T04:31:55.857Z,51.68
2017-12-13T04:32:55.849Z,51.58
2017-12-13T04:33:55.842Z,51.58
2017-12-13T04:34:55.835Z,51.68
2017-12-13T04:35:55.825Z,51.68
2017-12-13T04:36:55.821Z,51.48
2017-12-13T04:37:55.812Z,51.68
2017-12-13T04:38:55.810Z,51.39
2017-12-13T04:39:55.798Z,51.29
2017-12-13T04:40:55.788Z,51.48
2017-12-13T04:41:55.783Z,51.48
2017-12-13T04:42:55.774Z,51.68
2017-12-13T04:43:55.768Z,51.97
2017-12-13T04:44:55.760Z,51.68
2017-12-13T04:45:55.753Z,51.68
2017-12-13T04:46:55.743Z,51.77
2017-12-13T04:47:55.738Z,51.77
2017-12-13T04:48:55.731Z,51.77
2017-12-13T04:49:55.721Z,51.87
2017-12-13T04:50:55.714Z,51.77
2017-12-13T04:51:55.707Z,51.87
2017-12-13T04:52:55.700Z,52.16
2017-12-13T04:53:55.693Z,52.16
2017-12-13T04:54:55.686Z,52.45
2017-12-13T04:55:55.676Z,52.16
2017-12-13T04:56:55.672Z,52.16
2017-12-13T04:57:55.663Z,52.52
2017-12-13T04:58:55.654Z,52.33
2017-12-13T04:59:55.649Z,52.42
2017-12-13T05:00:55.643Z,52.23
2017-12-13T05:01:55.635Z,51.94
2017-12-13T05:02:55.628Z,52.04
2017-12-13T05:03:55.620Z,52.42
2017-12-13T05:04:55.614Z,52.61
2017-12-13T05:05:55.607Z,52.81
2017-12-13T05:06:55.600Z,52.42
2017-12-13T05:07:55.594Z,52.49
2017-12-13T05:08:55.586Z,52.61
2017-12-13T05:09:55.631Z,52.52
2017-12-13T05:10:55.573Z,52.71
2017-12-13T05:11:55.568Z,52.49
2017-12-13T05:12:55.559Z,52.40
2017-12-13T05:13:55.554Z,52.49
2017-12-13T05:14:55.546Z,52.59
2017-12-13T05:15:55.539Z,53.27
2017-12-13T05:16:55.533Z,53.17
2017-12-13T05:17:55.525Z,52.87
2017-12-13T05:18:55.520Z,52.97
2017-12-13T05:19:55.513Z,52.78
2017-12-13T05:20:55.508Z,52.78
2017-12-13T05:21:55.500Z,52.87
2017-12-13T05:22:55.493Z,52.78
2017-12-13T05:23:55.487Z,52.69
2017-12-13T05:24:55.479Z,52.91
2017-12-13T05:25:55.472Z,53.17
2017-12-13T05:26:55.466Z,52.81
2017-12-13T05:27:55.459Z,52.87
2017-12-13T05:28:55.459Z,52.78
2017-12-13T05:29:55.447Z,52.97
2017-12-13T05:30:55.440Z,52.78
2017-12-13T05:31:55.433Z,53.07
2017-12-13T05:32:55.426Z,52.87
2017-12-13T05:33:55.422Z,52.91
2017-12-13T05:34:55.412Z,52.81
2017-12-13T05:35:55.407Z,52.81
2017-12-13T05:36:55.403Z,53.00
2017-12-13T05:37:55.400Z,52.61
2017-12-13T05:38:55.386Z,52.81
2017-12-13T05:39:55.381Z,52.61
2017-12-13T05:40:55.376Z,53.00
2017-12-13T05:41:55.368Z,53.00
2017-12-13T05:42:55.360Z,53.09
2017-12-13T05:43:55.355Z,53.00
2017-12-13T05:44:55.347Z,53.09
2017-12-13T05:45:55.341Z,53.09
2017-12-13T05:46:55.335Z,53.00
2017-12-13T05:47:55.329Z,53.09
2017-12-13T05:48:55.323Z,53.09
2017-12-13T05:49:55.317Z,53.09
2017-12-13T05:50:55.311Z,53.09
2017-12-13T05:51:55.302Z,53.09
2017-12-13T05:52:55.296Z,53.00
2017-12-13T05:53:55.291Z,53.09
2017-12-13T05:54:55.284Z,52.91
2017-12-13T05:55:55.279Z,53.00
2017-12-13T05:56:55.271Z,52.81
2017-12-13T05:57:55.266Z,52.91
2017-12-13T05:58:55.258Z,53.09
2017-12-13T05:59:55.252Z,52.61
2017-12-13T06:00:55.247Z,53.09
2017-12-13T06:01:55.242Z,52.91
2017-12-13T06:02:55.233Z,53.00
2017-12-13T06:03:55.227Z,53.19
2017-12-13T06:04:55.222Z,53.00
2017-12-13T06:05:55.216Z,53.00
2017-12-13T06:06:55.209Z,53.19
2017-12-13T06:07:55.201Z,53.29
2017-12-13T06:08:55.196Z,53.07
2017-12-13T06:09:55.192Z,52.61
2017-12-13T06:10:55.182Z,52.78
2017-12-13T06:11:55.177Z,52.81
2017-12-13T06:12:55.170Z,52.78
2017-12-13T06:13:55.166Z,52.59
2017-12-13T06:14:55.157Z,52.30
2017-12-13T06:15:55.151Z,52.49
2017-12-13T06:16:55.144Z,52.49
2017-12-13T06:17:55.142Z,52.59
2017-12-13T06:18:55.131Z,52.49
2017-12-13T06:19:55.126Z,52.49
2017-12-13T06:20:55.119Z,52.49
2017-12-13T06:21:55.113Z,52.78
2017-12-13T06:22:55.108Z,52.59
2017-12-13T06:23:55.100Z,52.59
2017-12-13T06:24:55.095Z,52.49
2017-12-13T06:25:55.093Z,52.59
2017-12-13T06:26:55.081Z,52.71
2017-12-13T06:27:55.075Z,52.78
2017-12-13T06:28:55.069Z,52.59
2017-12-13T06:29:55.063Z,52.30
2017-12-13T06:30:55.056Z,52.59
2017-12-13T06:31:55.068Z,52.40
2017-12-13T06:32:55.045Z,52.69
2017-12-13T06:33:55.038Z,52.59
2017-12-13T06:34:55.031Z,52.59
2017-12-13T06:35:55.026Z,52.59
2017-12-13T06:36:55.018Z,52.59
2017-12-13T06:37:55.043Z,52.59
2017-12-13T06:38:55.006Z,52.49
2017-12-13T06:39:54.999Z,52.61
2017-12-13T06:40:54.993Z,52.71
2017-12-13T06:41:54.988Z,52.59
2017-12-13T06:42:54.981Z,52.40
2017-12-13T06:43:54.973Z,52.52
2017-12-13T06:44:54.968Z,52.52
2017-12-13T06:45:54.963Z,52.49
2017-12-13T06:46:54.955Z,52.69
2017-12-13T06:47:54.950Z,52.87
2017-12-13T06:48:54.943Z,52.49
2017-12-13T06:49:54.938Z,52.40
2017-12-13T06:50:54.930Z,52.40
2017-12-13T06:51:54.924Z,52.01
2017-12-13T06:52:54.917Z,52.11
2017-12-13T06:53:54.912Z,52.01
2017-12-13T06:54:54.905Z,52.30
2017-12-13T06:55:54.918Z,52.30
2017-12-13T06:56:54.894Z,52.20
2017-12-13T06:57:54.887Z,52.40
2017-12-13T06:58:54.880Z,52.20
2017-12-13T06:59:54.875Z,52.23
2017-12-13T07:00:54.867Z,52.42
2017-12-13T07:01:54.862Z,52.59
2017-12-13T07:02:54.855Z,52.40
2017-12-13T07:03:54.846Z,52.11
2017-12-13T07:04:54.843Z,51.92
2017-12-13T07:05:54.837Z,52.11
2017-12-13T07:06:54.830Z,52.40
2017-12-13T07:07:54.823Z,52.40
2017-12-13T07:08:54.818Z,52.40
2017-12-13T07:09:54.811Z,52.40
2017-12-13T07:10:54.804Z,52.01
2017-12-13T07:11:54.799Z,52.11
2017-12-13T07:12:54.793Z,52.20
2017-12-13T07:13:54.787Z,52.20
2017-12-13T07:14:54.781Z,52.11
2017-12-13T07:15:54.774Z,51.92
2017-12-13T07:16:54.769Z,51.92
2017-12-13T07:17:54.761Z,52.20
2017-12-13T07:18:54.756Z,52.01
2017-12-13T07:19:54.749Z,52.11
2017-12-13T07:20:54.743Z,52.42
2017-12-13T07:21:54.737Z,52.20
2017-12-13T07:22:54.730Z,52.20
2017-12-13T07:23:54.725Z,52.49
2017-12-13T07:24:54.719Z,52.40
2017-12-13T07:25:54.712Z,52.30
2017-12-13T07:26:54.706Z,52.40
2017-12-13T07:27:54.706Z,52.30
2017-12-13T07:28:54.693Z,52.49
2017-12-13T07:29:54.688Z,52.20
2017-12-13T07:30:54.684Z,52.20
2017-12-13T07:31:54.674Z,52.20
2017-12-13T07:32:54.669Z,52.40
2017-12-13T07:33:54.663Z,52.33
2017-12-13T07:34:54.655Z,52.30
2017-12-13T07:35:54.649Z,52.30
2017-12-13T07:36:54.644Z,52.40
2017-12-13T07:37:54.639Z,52.30
2017-12-13T07:38:54.630Z,52.20
2017-12-13T07:39:54.688Z,52.11
2017-12-13T07:40:54.618Z,52.11
2017-12-13T07:41:54.613Z,52.11
2017-12-13T07:42:54.605Z,52.01
2017-12-13T07:43:54.601Z,51.82
2017-12-13T07:44:54.592Z,51.92
2017-12-13T07:45:54.588Z,52.30
2017-12-13T07:46:54.581Z,52.11
2017-12-13T07:47:54.575Z,52.11
2017-12-13T07:48:54.569Z,52.01
2017-12-13T07:49:54.566Z,51.92
2017-12-13T07:50:54.556Z,52.11
2017-12-13T07:51:54.550Z,52.01
2017-12-13T07:52:54.547Z,51.92
2017-12-13T07:53:54.538Z,52.01
2017-12-13T07:54:54.531Z,52.20
2017-12-13T07:55:54.525Z,52.01
2017-12-13T07:56:54.519Z,52.20
2017-12-13T07:57:54.513Z,52.04
2017-12-13T07:58:54.506Z,52.20
2017-12-13T07:59:54.507Z,52.20
2017-12-13T08:00:54.495Z,52.20
2017-12-13T08:01:54.489Z,52.20
2017-12-13T08:02:54.482Z,52.11
2017-12-13T08:03:54.476Z,52.23
2017-12-13T08:04:54.526Z,52.30
2017-12-13T08:05:54.462Z,52.11
2017-12-13T08:06:54.457Z,51.72
2017-12-13T08:07:54.451Z,51.56
2017-12-13T08:08:54.446Z,51.62
2017-12-13T08:09:54.439Z,51.43
2017-12-13T08:10:54.434Z,51.43
2017-12-13T08:11:54.427Z,51.43
2017-12-13T08:12:54.420Z,51.62
2017-12-13T08:13:54.413Z,51.34
2017-12-13T08:14:54.410Z,51.46
2017-12-13T08:15:54.401Z,51.43
2017-12-13T08:16:54.395Z,51.34
2017-12-13T08:17:54.397Z,51.43
2017-12-13T08:18:54.383Z,51.36
2017-12-13T08:19:54.378Z,51.43
2017-12-13T08:20:54.377Z,51.62
2017-12-13T08:21:54.364Z,51.53
2017-12-13T08:22:54.357Z,51.72
2017-12-13T08:23:54.353Z,51.46
2017-12-13T08:24:54.345Z,51.62
2017-12-13T08:25:54.339Z,51.65
2017-12-13T08:26:54.333Z,51.62
2017-12-13T08:27:54.330Z,51.62
2017-12-13T08:28:54.321Z,51.62
2017-12-13T08:29:54.315Z,51.56
2017-12-13T08:30:54.307Z,51.84
2017-12-13T08:31:54.302Z,51.34
2017-12-13T08:32:54.296Z,51.84
2017-12-13T08:33:54.291Z,51.82
2017-12-13T08:34:54.284Z,51.36
2017-12-13T08:35:54.278Z,51.36
2017-12-13T08:36:54.270Z,51.26
2017-12-13T08:37:54.267Z,51.46
2017-12-13T08:38:54.259Z,51.46
2017-12-13T08:39:54.253Z,51.65
2017-12-13T08:40:54.246Z,51.65
2017-12-13T08:41:54.240Z,51.26
2017-12-13T08:42:54.234Z,51.65
2017-12-13T08:43:54.231Z,51.56
2017-12-13T08:44:54.222Z,51.26
2017-12-13T08:45:54.217Z,51.46
2017-12-13T08:46:54.210Z,51.56
2017-12-13T08:47:54.205Z,51.56
2017-12-13T08:48:54.198Z,51.65
2017-12-13T08:49:54.191Z,51.56
2017-12-13T08:50:54.184Z,50.88
2017-12-13T08:51:54.179Z,50.78
2017-12-13T08:52:54.173Z,51.07
2017-12-13T08:53:54.167Z,50.98
2017-12-13T08:54:54.162Z,51.07
2017-12-13T08:55:54.154Z,51.26
2017-12-13T08:56:54.151Z,51.07
2017-12-13T08:57:54.167Z,51.56
2017-12-13T08:58:54.135Z,50.78
2017-12-13T08:59:54.131Z,50.81
2017-12-13T09:00:54.134Z,50.32
2017-12-13T09:01:54.117Z,49.84
2017-12-13T09:02:54.139Z,49.77
2017-12-13T09:03:54.105Z,49.94
2017-12-13T09:04:54.100Z,49.87
2017-12-13T09:05:54.094Z,49.58
2017-12-13T09:06:54.088Z,49.96
2017-12-13T09:07:54.082Z,49.58
2017-12-13T09:08:54.076Z,49.29
2017-12-13T09:09:54.072Z,49.12
2017-12-13T09:10:54.061Z,48.83
2017-12-13T09:11:54.060Z,48.44
2017-12-13T09:12:54.053Z,48.44
2017-12-13T09:13:54.048Z,48.37
2017-12-13T09:14:54.040Z,48.44
2017-12-13T09:15:54.034Z,48.44
2017-12-13T09:16:54.029Z,48.47
2017-12-13T09:17:54.023Z,48.47
2017-12-13T09:18:54.018Z,47.89
2017-12-13T09:19:54.012Z,48.08
2017-12-13T09:20:54.012Z,48.11
2017-12-13T09:21:54.002Z,47.81
2017-12-13T09:22:53.997Z,47.53
2017-12-13T09:23:53.993Z,47.07
2017-12-13T09:24:53.987Z,46.58
2017-12-13T09:25:53.981Z,46.90
2017-12-13T09:26:53.975Z,46.70
2017-12-13T09:27:53.971Z,45.76
2017-12-13T09:28:53.967Z,46.05
2017-12-13T09:29:53.961Z,45.68
2017-12-13T09:30:53.955Z,45.68
2017-12-13T09:31:53.949Z,45.68
2017-12-13T09:32:53.946Z,45.40
2017-12-13T09:33:53.942Z,45.30
2017-12-13T09:34:53.937Z,44.93
2017-12-13T09:35:53.933Z,44.93
2017-12-13T09:36:53.929Z,44.76
2017-12-13T09:37:53.925Z,44.47
2017-12-13T09:38:53.920Z,44.96
2017-12-13T09:39:53.918Z,44.67
2017-12-13T09:40:53.912Z,44.57
2017-12-13T09:41:53.910Z,44.27
2017-12-13T09:42:53.903Z,44.49
2017-12-13T09:43:53.903Z,44.27
2017-12-13T09:44:53.900Z,44.40
2017-12-13T09:45:53.896Z,44.37
2017-12-13T09:46:53.891Z,44.37
2017-12-13T09:47:53.887Z,44.76
2017-12-13T09:48:53.884Z,44.54
2017-12-13T09:49:53.881Z,45.32
2017-12-13T09:50:53.878Z,45.01
2017-12-13T09:51:53.874Z,45.76
2017-12-13T09:52:53.870Z,46.34
2017-12-13T09:53:53.868Z,46.22
2017-12-13T09:54:53.862Z,46.12
2017-12-13T09:55:53.860Z,46.61
2017-12-13T09:56:53.855Z,46.51
2017-12-13T09:57:53.856Z,46.61
2017-12-13T09:58:53.853Z,46.12
2017-12-13T09:59:53.843Z,46.12
2017-12-13T10:00:53.842Z,45.83
2017-12-13T10:01:53.837Z,46.03
2017-12-13T10:02:53.833Z,46.22
2017-12-13T10:03:53.830Z,45.72
2017-12-13T10:04:53.826Z,45.91
2017-12-13T10:05:53.822Z,46.78
2017-12-13T10:06:53.819Z,46.49
2017-12-13T10:07:53.815Z,46.56
2017-12-13T10:08:53.811Z,46.95
2017-12-13T10:09:53.808Z,46.75
2017-12-13T10:10:53.803Z,46.37
2017-12-13T10:11:53.800Z,46.95
2017-12-13T10:12:53.798Z,46.64
2017-12-13T10:13:53.792Z,46.75
2017-12-13T10:14:53.791Z,46.75
2017-12-13T10:15:53.784Z,46.85
2017-12-13T10:16:53.781Z,46.75
2017-12-13T10:17:53.777Z,46.75
2017-12-13T10:18:53.771Z,46.47
2017-12-13T10:19:53.771Z,46.56
2017-12-13T10:20:53.763Z,46.08
2017-12-13T10:21:53.763Z,46.66
2017-12-13T10:22:53.754Z,46.08
2017-12-13T10:23:53.751Z,45.98
2017-12-13T10:24:53.747Z,45.89
2017-12-13T10:25:53.742Z,46.56
2017-12-13T10:26:53.736Z,46.56
2017-12-13T10:27:53.733Z,46.37
2017-12-13T10:28:53.730Z,46.15
2017-12-13T10:29:53.724Z,46.54
2017-12-13T10:30:53.720Z,46.83
2017-12-13T10:31:53.716Z,46.73
2017-12-13T10:32:53.712Z,46.64
2017-12-13T10:33:53.707Z,46.42
2017-12-13T10:34:53.702Z,46.61
2017-12-13T10:35:53.697Z,46.90
2017-12-13T10:36:53.692Z,46.61
2017-12-13T10:37:53.688Z,47.00
2017-12-13T10:38:53.683Z,46.71
2017-12-13T10:39:53.679Z,47.00
2017-12-13T10:40:53.676Z,46.64
2017-12-13T10:41:53.671Z,46.73
2017-12-13T10:42:53.664Z,47.02
2017-12-13T10:43:53.661Z,46.25
2017-12-13T10:44:53.655Z,46.75
2017-12-13T10:45:53.650Z,46.17
2017-12-13T10:46:53.644Z,45.69
2017-12-13T10:47:53.641Z,46.08
2017-12-13T10:48:53.637Z,46.08
2017-12-13T10:49:53.630Z,46.08
2017-12-13T10:50:53.625Z,45.89
2017-12-13T10:51:53.620Z,46.17
2017-12-13T10:52:53.617Z,46.17
2017-12-13T10:53:53.612Z,46.08
2017-12-13T10:54:53.606Z,46.08
2017-12-13T10:55:53.600Z,45.79
2017-12-13T10:56:53.595Z,46.25
2017-12-13T10:57:53.597Z,45.96
2017-12-13T10:58:53.612Z,46.54
2017-12-13T10:59:53.579Z,46.54
2017-12-13T11:00:53.575Z,46.54
2017-12-13T11:01:53.586Z,46.44
2017-12-13T11:02:53.571Z,46.54
2017-12-13T11:03:53.603Z,46.92
2017-12-13T11:04:53.557Z,46.81
2017-12-13T11:05:53.606Z,46.90
2017-12-13T11:06:53.546Z,47.09
2017-12-13T11:07:53.554Z,46.61
2017-12-13T11:08:53.535Z,46.61
2017-12-13T11:09:53.526Z,46.42
2017-12-13T11:10:53.528Z,46.81
2017-12-13T11:11:53.555Z,46.42
2017-12-13T11:12:53.513Z,46.90
2017-12-13T11:13:53.529Z,47.00
2017-12-13T11:14:53.503Z,47.09
2017-12-13T11:15:53.506Z,47.09
2017-12-13T11:16:53.503Z,47.17
2017-12-13T11:17:53.489Z,47.36
2017-12-13T11:18:53.478Z,47.17
2017-12-13T11:19:53.476Z,47.55
2017-12-13T11:20:53.473Z,47.45
2017-12-13T11:21:53.467Z,47.27
2017-12-13T11:22:53.462Z,47.27
2017-12-13T11:23:53.456Z,47.75
2017-12-13T11:24:53.451Z,47.75
2017-12-13T11:25:53.445Z,47.45
2017-12-13T11:26:53.441Z,47.75
2017-12-13T11:27:53.436Z,47.75
2017-12-13T11:28:53.430Z,47.55
2017-12-13T11:29:53.425Z,47.45
2017-12-13T11:30:53.421Z,47.65
2017-12-13T11:31:53.415Z,47.55
2017-12-13T11:32:53.408Z,47.63
2017-12-13T11:33:53.404Z,47.34
2017-12-13T11:34:53.398Z,47.72
2017-12-13T11:35:53.394Z,47.53
2017-12-13T11:36:53.386Z,47.53
2017-12-13T11:37:53.383Z,47.75
2017-12-13T11:38:53.376Z,48.01
2017-12-13T11:39:53.370Z,47.82
2017-12-13T11:40:53.366Z,48.01
2017-12-13T11:41:53.360Z,48.11
2017-12-13T11:42:53.355Z,48.11
2017-12-13T11:43:53.349Z,48.21
2017-12-13T11:44:53.344Z,47.92
2017-12-13T11:45:53.352Z,48.11
2017-12-13T11:46:53.332Z,48.49
2017-12-13T11:47:53.329Z,47.82
2017-12-13T11:48:53.321Z,48.01
2017-12-13T11:49:53.316Z,48.01
2017-12-13T11:50:53.310Z,47.92
2017-12-13T11:51:53.303Z,48.01
2017-12-13T11:52:53.332Z,47.92
2017-12-13T11:53:53.295Z,48.01
2017-12-13T11:54:53.287Z,48.21
2017-12-13T11:55:53.280Z,48.30
2017-12-13T11:56:53.277Z,48.11
2017-12-13T11:57:53.272Z,48.40
2017-12-13T11:58:53.266Z,48.69
2017-12-13T11:59:53.261Z,48.49
2017-12-13T12:00:53.253Z,48.59
2017-12-13T12:01:53.250Z,48.49
2017-12-13T12:02:53.242Z,48.49
2017-12-13T12:03:53.237Z,48.40
2017-12-13T12:04:53.232Z,48.21
2017-12-13T12:05:53.227Z,48.30
2017-12-13T12:06:53.221Z,48.21
2017-12-13T12:07:53.216Z,48.40
2017-12-13T12:08:53.209Z,48.30
2017-12-13T12:09:53.204Z,48.59
2017-12-13T12:10:53.199Z,48.30
2017-12-13T12:11:53.190Z,48.40
2017-12-13T12:12:53.187Z,48.38
2017-12-13T12:13:53.181Z,48.40
2017-12-13T12:14:53.174Z,48.28
2017-12-13T12:15:53.169Z,48.21
2017-12-13T12:16:53.163Z,48.18
2017-12-13T12:17:53.162Z,48.21
2017-12-13T12:18:53.153Z,48.08
2017-12-13T12:19:53.146Z,48.28
2017-12-13T12:20:53.139Z,48.18
2017-12-13T12:21:53.136Z,48.47
2017-12-13T12:22:53.130Z,48.38
2017-12-13T12:23:53.123Z,48.08
2017-12-13T12:24:53.117Z,48.08
2017-12-13T12:25:53.113Z,48.28
2017-12-13T12:26:53.107Z,48.28
2017-12-13T12:27:53.100Z,48.38
2017-12-13T12:28:53.096Z,48.38
2017-12-13T12:29:53.091Z,48.38
2017-12-13T12:30:53.083Z,48.28
2017-12-13T12:31:53.077Z,48.38
2017-12-13T12:32:53.071Z,48.47
2017-12-13T12:33:53.067Z,48.47
2017-12-13T12:34:53.059Z,48.38
2017-12-13T12:35:53.055Z,48.38
2017-12-13T12:36:53.050Z,48.47
2017-12-13T12:37:53.045Z,48.66
2017-12-13T12:38:53.037Z,48.57
2017-12-13T12:39:53.034Z,48.66
2017-12-13T12:40:53.026Z,48.66
2017-12-13T12:41:53.019Z,48.66
2017-12-13T12:42:53.015Z,48.66
2017-12-13T12:43:53.009Z,48.76
2017-12-13T12:44:53.001Z,48.76
2017-12-13T12:45:52.996Z,48.76
2017-12-13T12:46:52.990Z,48.66
2017-12-13T12:47:52.985Z,48.57
2017-12-13T12:48:52.980Z,48.47
2017-12-13T12:49:52.974Z,48.66
2017-12-13T12:50:52.969Z,48.66
2017-12-13T12:51:52.963Z,48.86
2017-12-13T12:52:52.956Z,48.66
2017-12-13T12:53:52.951Z,48.57
2017-12-13T12:54:52.944Z,48.57
2017-12-13T12:55:52.939Z,48.66
2017-12-13T12:56:52.933Z,48.66
2017-12-13T12:57:52.928Z,48.76
2017-12-13T12:58:52.920Z,49.15
2017-12-13T12:59:52.915Z,49.24
2017-12-13T13:00:52.910Z,49.34
2017-12-13T13:01:52.905Z,49.34
2017-12-13T13:02:52.897Z,49.34
2017-12-13T13:03:52.893Z,49.24
2017-12-13T13:04:52.888Z,49.15
2017-12-13T13:05:52.882Z,49.15
2017-12-13T13:06:52.874Z,49.15
2017-12-13T13:07:52.868Z,49.05
2017-12-13T13:08:52.863Z,49.15
2017-12-13T13:09:52.858Z,49.15
2017-12-13T13:10:52.891Z,48.95
2017-12-13T13:11:52.845Z,49.24
2017-12-13T13:12:52.859Z,49.15
2017-12-13T13:13:52.848Z,49.34
2017-12-13T13:14:52.830Z,49.24
2017-12-13T13:15:52.821Z,49.05
2017-12-13T13:16:52.816Z,49.24
2017-12-13T13:17:52.809Z,49.15